Terminal Aerodrome Forecast
Issued by NWS

Home | Current Version | Previous Version | Graphics & Text | Print | Product List | Glossary On
Versions: 1 2 3 4 5 6 7 8 9 10 11 12 13 14 15 16 17 18 19 20 21 22 23 24
667
FTUS45 KGGW 222326
TAFOLF
TAF
KOLF 222326Z 2300/2324 11013KT P6SM SCT090
     FM230130 09009KT P6SM -TSRAGS BKN090CB
      TEMPO 2302/2304 VRB25G35KT 5SM TSRAGS SCT050 BKN090CB
     FM230400 08008KT P6SM VCTS BKN100CB
     FM230900 33007KT P6SM VCSH SCT060 PROB30 2309/2311 6SM -TSRA
      BKN060CB
     FM231200 28013KT P6SM FEW140=

USA.gov is the U.S. government's official web portal to all federal, state and local government web resources and services.